Latest Weather Observations for Tamworth Airport

IDN60801

Issued at 7:05 pm EDT Friday 31 October 2014 (issued every 30 minutes, with the page automatically refreshed every 10 minutes)

About weather observations | Map of weather stations | Latest weather observations for NSW | Other Formats
Station Details ID: 055325 Name: TAMWORTH AIRPORT AWS Lat: -31.07 Lon: 150.84 Height: 394.9 m
Data from the previous 72 hours. | See also: Recent months at Tamworth Airport
Date/Time
EDT
Temp
°C
App
Temp
°C
Dew
Point
Rel
Hum
%
Delta-T
°C
Wind Press
QNH
hPa
Press
MSL
hPa
Rain
since 9 am
mm
Dir
 
Spd
km/h
Gust
km/h
Spd
kts
Gust
kts
31/07:00pm 29.2 27.3 6.6 24 12.3 S 6 7 3 4 1009.2 1008.1 0.0
31/06:30pm 30.4 27.9 4.9 20 13.5 SSW 7 9 4 5 1009.0 1007.9 0.0
31/06:00pm 31.0 28.0 2.3 16 14.6 SW 7 11 4 6 1009.1 1008.0 0.0
31/05:30pm 28.3 23.2 5.8 24 12.0 SW 22 28 12 15 1009.4 1008.4 0.0
31/05:22pm 30.2 20.0 3.3 18 13.9 WSW 46 69 25 37 1009.8 1008.8 0.0
31/05:18pm 30.8 16.5 0.2 14 15.0 W 65 83 35 45 1009.4 1008.4 0.0
31/05:16pm 30.5 16.1 1.9 16 14.4 W 67 83 36 45 1009.3 1008.2 0.0
31/05:15pm 30.7 20.6 0.2 14 15.0 W 43 83 23 45 1009.4 1008.4 0.0
31/05:11pm 30.7 21.6 2.0 16 14.5 WNW 39 54 21 29 1009.6 1008.6 0.0
31/05:02pm 31.4 25.0 0.7 14 15.3 NNW 24 39 13 21 1009.9 1008.9 0.0
31/05:00pm 31.3 22.2 1.6 15 15.0 WNW 39 48 21 26 1009.9 1008.9 0.0
31/04:39pm 31.3 23.9 4.2 18 14.3 WNW 32 44 17 24 1009.6 1008.6 0.0
31/04:30pm 33.5 29.0 2.4 14 16.1 NW 15 24 8 13 1009.5 1008.5 0.0
31/04:00pm 35.0 29.8 2.5 13 17.0 WNW 19 32 10 17 1009.6 1008.6 0.0
31/03:30pm 34.5 30.0 4.1 15 16.3 NNW 17 26 9 14 1009.9 1008.9 0.0
31/03:00pm 34.2 30.4 3.9 15 16.2 NW 13 20 7 11 1010.5 1009.4 0.0
31/02:30pm 35.1 29.5 3.6 14 16.8 N 22 37 12 20 1011.0 1009.9 0.0
31/02:00pm 34.2 28.9 2.9 14 16.4 NNW 20 33 11 18 1011.7 1010.7 0.0
31/01:30pm 33.6 28.3 5.2 17 15.4 NNE 22 32 12 17 1012.2 1011.2 0.0
31/01:00pm 33.1 28.1 4.8 17 15.2 NNW 20 32 11 17 1012.9 1011.8 0.0
31/12:30pm 33.2 27.7 2.1 14 16.0 NNW 20 35 11 19 1013.6 1012.5 0.0
31/12:00pm 32.3 27.0 5.0 18 14.6 N 22 35 12 19 1014.2 1013.2 0.0
31/11:30am 32.3 27.7 6.5 20 14.2 N 20 32 11 17 1014.7 1013.7 0.0
31/11:00am 30.5 26.5 8.3 25 12.4 N 19 28 10 15 1015.3 1014.3 0.0
31/10:30am 29.2 25.0 8.3 27 11.6 N 20 28 11 15 1015.9 1014.8 0.0
31/10:00am 27.5 24.1 5.7 25 11.5 N 13 20 7 11 1016.1 1015.1 0.0
31/09:30am 25.7 23.0 3.6 24 11.1 N 7 15 4 8 1016.2 1015.2 0.0
31/09:00am 23.8 21.2 3.2 26 10.2 NNW 6 9 3 5 1016.4 1015.4 0.0
31/08:30am 22.4 19.8 3.0 28 9.5 ESE 6 9 3 5 1016.3 1015.3 0.0
31/08:00am 19.3 16.5 2.2 32 8.0 S 6 11 3 6 1016.3 1015.3 0.0
31/07:30am 16.1 13.3 3.2 42 6.0 WSW 7 11 4 6 1016.3 1015.3 0.0
31/07:00am 13.9 10.8 3.7 50 4.7 NW 9 15 5 8 1016.1 1015.1 0.0
31/06:30am 13.9 9.9 3.1 48 4.9 SSE 13 19 7 10 1015.3 1014.3 0.0
31/06:00am 12.6 7.8 2.7 51 4.4 SSE 17 17 9 9 1015.1 1014.1 0.0
31/05:30am 12.0 8.3 2.5 52 4.2 SSE 11 13 6 7 1014.9 1013.9 0.0
31/05:00am 12.7 9.4 2.3 49 4.6 SSE 9 11 5 6 1014.8 1013.8 0.0
31/04:30am 13.4 10.2 2.9 49 4.8 SE 9 11 5 6 1014.7 1013.7 0.0
31/04:00am 12.9 9.9 2.2 48 4.8 SSE 7 11 4 6 1014.6 1013.6 0.0
31/03:30am 13.5 10.5 1.8 45 5.2 S 7 9 4 5 1014.6 1013.6 0.0
31/03:00am 13.7 12.1 2.3 46 5.1 CALM 0 0 0 0 1014.5 1013.5 0.0
31/02:30am 14.6 11.2 1.8 42 5.7 SSE 9 11 5 6 1014.5 1013.5 0.0
31/02:00am 15.1 12.7 2.3 42 5.8 SSW 4 7 2 4 1014.6 1013.6 0.0
31/01:30am 15.4 12.3 1.5 39 6.2 SSE 7 9 4 5 1014.8 1013.8 0.0
31/01:00am 16.1 12.7 1.8 38 6.5 SSE 9 11 5 6 1014.9 1013.9 0.0
31/12:30am 14.8 12.1 2.4 43 5.6 SSE 6 9 3 5 1015.0 1014.0 0.0
31/12:00am 16.7 12.9 1.6 36 6.8 SE 11 13 6 7 1015.0 1014.0 0.0
 
Date/Time
EDT
Temp
°C
App
Temp
°C
Dew
Point
Rel
Hum
%
Delta-T
°C
Wind Press
QNH
hPa
Press
MSL
hPa
Rain
since 9 am
mm
Dir
 
Spd
km/h
Gust
km/h
Spd
kts
Gust
kts
30/11:30pm 17.1 12.8 1.1 34 7.2 SSE 13 17 7 9 1015.1 1014.1 0.0
30/11:00pm 18.9 17.2 1.9 32 7.9 CALM 0 0 0 0 1015.0 1014.0 0.0
30/10:30pm 16.5 13.5 2.2 38 6.6 W 7 9 4 5 1014.8 1013.8 0.0
30/10:13pm 16.8 14.6 -1.3 29 7.7 CALM 0 0 0 0 1014.7 1013.7 0.0
30/10:00pm 21.9 20.1 1.5 26 9.6 CALM 0 0 0 0 1014.7 1013.7 0.0
30/09:30pm 20.9 17.9 0.7 26 9.3 W 6 7 3 4 1014.7 1013.7 0.0
30/09:00pm 18.1 15.2 -1.2 27 8.4 NNW 4 9 2 5 1014.4 1013.4 0.0
30/08:59pm 18.6 15.8 -0.7 27 8.5 N 4 9 2 5 1014.4 1013.4 0.0
30/08:30pm 23.9 22.1 0.9 22 10.9 CALM 0 0 0 0 1014.0 1013.0 0.0
30/08:00pm 24.5 21.5 0.8 21 11.2 WNW 6 6 3 3 1013.7 1012.6 0.0
30/07:30pm 26.5 23.2 0.3 18 12.5 W 7 9 4 5 1013.6 1012.5 0.0
30/07:00pm 28.7 24.9 -0.5 15 14.0 WSW 9 11 5 6 1013.4 1012.3 0.0
30/06:30pm 30.5 25.9 -1.0 13 15.1 SW 13 19 7 10 1013.1 1012.0 0.0
30/06:00pm 31.5 28.3 -0.2 13 15.5 S 6 11 3 6 1012.9 1011.8 0.0
30/05:30pm 31.4 27.1 0.7 14 15.3 WSW 13 19 7 10 1012.9 1011.8 0.0
30/05:00pm 31.5 27.4 -0.2 13 15.5 W 11 17 6 9 1013.0 1011.9 0.0
30/04:30pm 31.2 25.5 -0.5 13 15.4 WSW 19 24 10 13 1013.2 1012.1 0.0
30/04:00pm 32.2 29.0 -0.8 12 16.1 W 6 13 3 7 1013.2 1012.1 0.0
30/03:30pm 31.4 25.8 -0.3 13 15.5 WSW 19 28 10 15 1013.6 1012.5 0.0
30/03:00pm 30.7 25.1 0.2 14 15.0 WSW 19 32 10 17 1013.8 1012.8 0.0
30/02:30pm 30.9 26.1 0.3 14 15.1 W 15 22 8 12 1014.3 1013.3 0.0
30/02:00pm 31.8 26.2 1.0 14 15.4 WNW 20 28 11 15 1014.7 1013.7 0.0
30/01:30pm 30.6 25.5 1.0 15 14.7 W 17 24 9 13 1015.1 1014.1 0.0
30/01:00pm 30.1 24.9 2.4 17 14.0 NNW 19 30 10 16 1015.5 1014.4 0.0
30/12:30pm 30.0 26.6 3.9 19 13.6 WNW 11 19 6 10 1015.9 1014.8 0.0
30/12:00pm 28.3 23.6 3.2 20 12.7 NW 17 24 9 13 1016.5 1015.5 0.0
30/11:30am 28.1 24.6 5.6 24 11.9 WNW 13 24 7 13 1016.9 1015.9 0.0
30/11:00am 27.3 23.6 6.1 26 11.3 WNW 15 20 8 11 1017.4 1016.4 0.0
30/10:30am 26.2 23.6 7.7 31 10.0 NW 11 20 6 11 1017.5 1016.5 0.0
30/10:00am 24.8 21.2 8.3 35 9.0 NNW 17 26 9 14 1017.9 1016.9 0.0
30/09:30am 23.4 20.4 9.4 41 7.7 N 15 24 8 13 1018.0 1017.0 0.0
30/09:00am 21.7 20.1 8.9 44 6.9 N 7 17 4 9 1018.0 1017.0 0.0
30/08:30am 21.2 19.3 9.1 46 6.6 ESE 9 11 5 6 1018.2 1017.2 0.0
30/08:00am 18.6 16.6 8.8 53 5.2 SSE 9 11 5 6 1018.0 1017.0 0.0
30/07:30am 16.9 14.5 8.8 59 4.3 SSE 11 13 6 7 1017.6 1016.6 0.0
30/07:00am 15.3 13.4 9.0 66 3.3 SE 9 11 5 6 1017.3 1016.3 0.0
30/06:30am 13.1 11.4 8.4 73 2.4 SE 7 7 4 4 1017.0 1016.0 0.0
30/06:00am 12.8 11.3 8.5 75 2.2 SE 6 7 3 4 1016.8 1015.8 0.0
30/05:30am 10.8 10.0 6.7 76 2.0 CALM 0 0 0 0 1016.6 1015.6 0.0
30/05:00am 13.3 13.1 9.2 76 2.1 CALM 0 0 0 0 1016.4 1015.4 0.0
30/04:30am 12.1 11.5 7.6 74 2.2 CALM 0 0 0 0 1016.1 1015.1 0.0
30/04:00am 14.0 13.6 8.2 68 3.0 CALM 0 0 0 0 1015.9 1014.8 0.0
30/03:30am 14.6 12.5 8.1 65 3.3 SSE 9 11 5 6 1015.8 1014.7 0.0
30/03:00am 15.5 12.7 8.7 64 3.5 SSE 13 15 7 8 1015.7 1014.6 0.0
30/02:30am 15.9 12.3 8.4 61 3.9 S 17 19 9 10 1015.7 1014.6 0.0
30/02:00am 16.0 12.8 8.5 61 3.9 S 15 17 8 9 1015.7 1014.6 0.0
30/01:30am 16.2 12.9 8.2 59 4.1 SSE 15 17 8 9 1015.7 1014.6 0.0
30/01:00am 16.7 13.7 7.9 56 4.5 SSE 13 15 7 8 1015.8 1014.7 0.0
30/12:30am 16.9 14.2 5.5 47 5.6 SE 9 11 5 6 1015.9 1014.8 0.0
30/12:00am 18.0 14.0 4.9 42 6.4 SE 15 17 8 9 1016.0 1015.0 0.0
 
Date/Time
EDT
Temp
°C
App
Temp
°C
Dew
Point
Rel
Hum
%
Delta-T
°C
Wind Press
QNH
hPa
Press
MSL
hPa
Rain
since 9 am
mm
Dir
 
Spd
km/h
Gust
km/h
Spd
kts
Gust
kts
29/11:30pm 18.2 13.9 5.4 43 6.3 SSE 17 20 9 11 1016.0 1015.0 0.0
29/11:00pm 17.7 12.4 1.7 34 7.3 SSE 19 20 10 11 1016.0 1015.0 0.0
29/10:30pm 18.7 16.9 1.2 31 8.0 CALM 0 0 0 0 1015.7 1014.6 0.0
29/10:00pm 20.8 19.1 2.1 29 8.8 CALM 0 0 0 0 1015.6 1014.5 0.0
29/09:30pm 20.3 18.7 2.6 31 8.4 CALM 0 0 0 0 1015.6 1014.5 0.0
29/09:00pm 18.9 16.6 0.5 29 8.3 SSW 2 7 1 4 1015.5 1014.4 0.0
29/08:45pm 19.1 16.9 -1.4 25 8.9 CALM 0 0 0 0 1015.2 1014.2 0.0
29/08:30pm 24.1 21.3 -0.2 20 11.3 SSW 4 7 2 4 1015.0 1014.0 0.0
29/08:00pm 24.4 21.4 0.7 21 11.2 SW 6 7 3 4 1014.8 1013.8 0.0
29/07:30pm 25.4 22.3 0.1 19 11.9 SW 6 7 3 4 1014.5 1013.5 0.0
29/07:00pm 27.4 24.1 0.2 17 13.0 WSW 7 9 4 5 1014.2 1013.2 0.0
29/06:30pm 29.1 25.4 -0.1 15 14.1 WSW 9 13 5 7 1014.0 1013.0 0.0
29/06:00pm 29.6 26.2 -0.7 14 14.5 W 7 15 4 8 1014.0 1013.0 0.0
29/05:30pm 29.5 24.9 -0.8 14 14.5 SW 13 20 7 11 1013.9 1012.9 0.0
29/05:00pm 29.5 26.1 -0.8 14 14.5 SSW 7 15 4 8 1013.9 1012.9 0.0
29/04:30pm 29.9 26.1 -0.5 14 14.7 W 9 19 5 10 1014.0 1013.0 0.0
29/04:00pm 29.5 26.0 1.1 16 14.0 N 9 13 5 7 1014.3 1013.3 0.0
29/03:30pm 29.6 24.8 0.2 15 14.3 SW 15 24 8 13 1014.6 1013.6 0.0
29/03:00pm 28.7 24.7 0.4 16 13.7 W 11 19 6 10 1015.0 1014.0 0.0
29/02:30pm 28.4 23.7 1.0 17 13.4 NNW 15 32 8 17 1015.2 1014.2 0.0
29/02:00pm 27.6 23.4 1.9 19 12.7 NNW 13 17 7 9 1015.8 1014.7 0.0
29/01:30pm 26.9 22.5 0.6 18 12.7 W 13 19 7 10 1016.2 1015.2 0.0
29/01:00pm 26.8 22.5 1.3 19 12.4 NNW 13 20 7 11 1016.4 1015.4 0.0
29/12:30pm 25.9 22.4 1.2 20 11.9 WNW 9 19 5 10 1016.8 1015.8 0.0
29/12:00pm 26.0 20.4 1.3 20 11.9 S 20 26 11 14 1017.2 1016.2 0.0
29/11:30am 24.9 21.2 2.4 23 11.0 N 11 17 6 9 1017.4 1016.4 0.0
29/11:00am 24.2 20.0 1.8 23 10.8 S 13 20 7 11 1017.9 1016.9 0.0
29/10:30am 24.6 19.9 3.3 25 10.6 SSW 17 28 9 15 1017.9 1016.9 0.0
29/10:00am 22.8 19.4 1.8 25 10.0 S 9 17 5 9 1018.3 1017.3 0.0
29/09:30am 22.6 19.6 2.1 26 9.8 ENE 7 15 4 8 1018.3 1017.3 0.0
29/09:00am 21.6 18.7 1.3 26 9.5 E 6 9 3 5 1018.4 1017.4 0.0
29/08:30am 19.6 17.3 0.1 27 8.8 NNE 2 6 1 3 1018.4 1017.4 0.0
29/08:00am 16.9 14.1 -0.3 31 7.5 SSW 4 7 2 4 1018.3 1017.3 0.0
29/07:30am 14.3 11.5 -0.6 36 6.3 SSE 4 7 2 4 1018.3 1017.3 0.0
29/07:00am 11.8 9.1 0.6 46 4.7 NNE 4 7 2 4 1017.9 1016.9 0.0
29/06:30am 9.0 5.6 -0.6 51 3.9 NNE 7 9 4 5 1017.6 1016.6 0.0
29/06:00am 9.4 6.5 -0.8 49 4.1 S 4 7 2 4 1017.1 1016.1 0.0
29/05:30am 10.5 8.6 0.3 49 4.3 CALM 0 0 0 0 1016.8 1015.8 0.0
29/05:00am 9.3 7.2 -0.6 50 4.0 CALM 0 0 0 0 1016.5 1015.5 0.0
29/04:30am 10.7 7.9 -0.7 45 4.7 E 4 7 2 4 1016.2 1015.2 0.0
29/04:00am 11.4 7.5 -1.4 41 5.2 ESE 9 11 5 6 1016.0 1015.0 0.0
29/03:30am 12.5 9.3 -0.7 40 5.5 E 6 9 3 5 1015.9 1014.8 0.0
29/03:00am 14.3 12.1 -1.3 34 6.5 CALM 0 0 0 0 1015.7 1014.6 0.0
29/02:30am 14.5 12.3 -1.2 34 6.6 CALM 0 2 0 1 1015.7 1014.6 0.0
29/02:00am 12.9 9.6 -1.4 37 5.9 NW 6 7 3 4 1015.9 1014.8 0.0
29/01:30am 13.6 11.4 -1.9 34 6.3 CALM 0 0 0 0 1015.9 1014.8 0.0
29/01:00am 15.1 11.6 -1.5 32 6.9 ESE 7 11 4 6 1016.0 1015.0 0.0
29/12:30am 15.6 12.2 -1.9 30 7.3 W 6 13 3 7 1016.0 1015.0 0.0
29/12:00am 17.7 15.4 -2.0 26 8.4 CALM 0 0 0 0 1016.0 1015.0 0.0
 
Date/Time
EDT
Temp
°C
App
Temp
°C
Dew
Point
Rel
Hum
%
Delta-T
°C
Wind Press
QNH
hPa
Press
MSL
hPa
Rain
since 9 am
mm
Dir
 
Spd
km/h
Gust
km/h
Spd
kts
Gust
kts
28/11:30pm 18.1 15.8 -2.2 25 8.6 CALM 0 6 0 3 1015.8 1014.7 0.0
28/11:00pm 19.8 16.1 -2.5 22 9.5 ESE 7 13 4 7 1015.5 1014.4 0.0
28/10:30pm 17.7 14.3 -2.0 26 8.4 NE 6 9 3 5 1015.2 1014.2 0.0
28/10:00pm 19.2 15.2 -2.4 23 9.2 SW 9 11 5 6 1015.0 1014.0 0.0
28/09:30pm 19.5 14.7 -2.8 22 9.5 SSW 13 19 7 10 1014.8 1013.8 0.0
28/09:00pm 20.4 14.8 -3.3 20 10.0 SW 17 20 9 11 1014.5 1013.5 0.0
28/08:30pm 22.0 15.5 -2.7 19 10.7 WSW 22 28 12 15 1014.0 1013.0 0.0
28/08:00pm 21.6 15.4 -4.5 17 10.9 WSW 19 22 10 12 1013.6 1012.5 0.0
28/07:30pm 23.2 16.7 -5.7 14 12.0 WSW 20 26 11 14 1013.3 1012.2 0.0

Other Formats:

Comma delimited format used in spreadsheet applications
http://www.bom.gov.au/fwo/IDN60801/IDN60801.95762.axf

JavaScript Object Notation format (JSON) in row-major order
http://www.bom.gov.au/fwo/IDN60801/IDN60801.95762.json